Brevik Bridge — VRHY7 — position and weather

sailwx.info

Track history (hours):
 
Tides and Currents Weather Stations Pressure Air Temp Water Temp Dewpoint Dewpoint Depression Visibility Wind Speed Wind Dir Waves Ship Positions

Brevik Bridge

Last reported at 2014-Oct-25 19:30 UTC. Time now 2014-Oct-25 19:53 UTC.
Position N 01°17' E 103°46'.

Length 268 m; draft 10.9 m.

Type: Cargo ship. MMSI: 477866200.

Date/timePositionNaut miles runAvg speedWind from/ knotsBaromVisibWave heightAir tempDewpointWater temp
2014-Oct-25 19:30N 01°17' E 103°46'0 0.1
2014-Oct-25 18:30N 01°17' E 103°46'0 0.0
2014-Oct-25 17:30N 01°17' E 103°46'0 0.1
2014-Oct-25 16:30N 01°17' E 103°46'0 0.1
2014-Oct-25 15:33N 01°17' E 103°46'0 0.1
2014-Oct-25 14:30N 01°17' E 103°46'0 0.0
2014-Oct-25 13:24N 01°17' E 103°46'0 0.0
2014-Oct-25 12:27N 01°17' E 103°46'0 0.0
2014-Oct-25 11:30N 01°17' E 103°46'0 0.0
2014-Oct-25 10:33N 01°17' E 103°46'2 1.5
2014-Oct-25 09:33N 01°17' E 103°45'3 3.2
2014-Oct-25 08:31N 01°15' E 103°47'1 0.4
2014-Oct-25 05:08N 01°15' E 103°48'0 0.1
2014-Oct-25 04:08N 01°15' E 103°48'0 0.2
2014-Oct-25 03:32N 01°15' E 103°48'0 0.1
2014-Oct-25 02:32N 01°15' E 103°48'0 0.0
2014-Oct-25 01:32N 01°15' E 103°48'0 0.0
2014-Oct-24 23:32N 01°15' E 103°48'0 0.0
2014-Oct-24 22:26N 01°15' E 103°48'0 0.0
2014-Oct-24 21:32N 01°15' E 103°48'0 0.1
2014-Oct-24 20:32N 01°15' E 103°48'0 0.0
2014-Oct-24 19:32N 01°15' E 103°48'1 1.1
2014-Oct-24 18:33N 01°15' E 103°47'7 6.8
2014-Oct-24 17:31N 01°13' E 103°41'  
Track history (hours):
 
Tides and Currents Weather Stations Pressure Air Temp Water Temp Dewpoint Dewpoint Depression Visibility Wind Speed Wind Dir Waves Ship Positions

Brevik Bridge

Last reported at 2014-Oct-25 19:30 UTC. Time now 2014-Oct-25 19:53 UTC.
Position N 01°17' E 103°46'.

Length 268 m; draft 10.9 m.

Type: Cargo ship. MMSI: 477866200.

Date/timePositionNaut miles runAvg speedWind from/ knotsBaromVisibWave heightAir tempDewpointWater temp
2014-Oct-25 19:30N 01°17' E 103°46'0 0.1
2014-Oct-25 18:30N 01°17' E 103°46'0 0.0
2014-Oct-25 17:30N 01°17' E 103°46'0 0.1
2014-Oct-25 16:30N 01°17' E 103°46'0 0.1
2014-Oct-25 15:33N 01°17' E 103°46'0 0.1
2014-Oct-25 14:30N 01°17' E 103°46'0 0.0
2014-Oct-25 13:24N 01°17' E 103°46'0 0.0
2014-Oct-25 12:27N 01°17' E 103°46'0 0.0
2014-Oct-25 11:30N 01°17' E 103°46'0 0.0
2014-Oct-25 10:33N 01°17' E 103°46'2 1.5
2014-Oct-25 09:33N 01°17' E 103°45'3 3.2
2014-Oct-25 08:31N 01°15' E 103°47'1 0.4
2014-Oct-25 05:08N 01°15' E 103°48'0 0.1
2014-Oct-25 04:08N 01°15' E 103°48'0 0.2
2014-Oct-25 03:32N 01°15' E 103°48'0 0.1
2014-Oct-25 02:32N 01°15' E 103°48'0 0.0
2014-Oct-25 01:32N 01°15' E 103°48'0 0.0
2014-Oct-24 23:32N 01°15' E 103°48'0 0.0
2014-Oct-24 22:26N 01°15' E 103°48'0 0.0
2014-Oct-24 21:32N 01°15' E 103°48'0 0.1
2014-Oct-24 20:32N 01°15' E 103°48'0 0.0
2014-Oct-24 19:32N 01°15' E 103°48'1 1.1
2014-Oct-24 18:33N 01°15' E 103°47'7 6.8
2014-Oct-24 17:31N 01°13' E 103°41'  

Dump ship's entire track history